sensor_id;sensor_type;location;lat;lon;timestamp;temperature;humidity
6054;DHT22;3055;50.886;14.814;2022-09-27T00:01:16;9.40;99.90
6054;DHT22;3055;50.886;14.814;2022-09-27T00:03:43;9.40;99.90
6054;DHT22;3055;50.886;14.814;2022-09-27T00:06:13;9.30;99.90
6054;DHT22;3055;50.886;14.814;2022-09-27T00:08:41;9.30;99.90
6054;DHT22;3055;50.886;14.814;2022-09-27T00:11:11;9.40;99.90
6054;DHT22;3055;50.886;14.814;2022-09-27T00:13:42;9.50;99.90
6054;DHT22;3055;50.886;14.814;2022-09-27T00:16:09;9.60;99.90
6054;DHT22;3055;50.886;14.814;2022-09-27T00:18:38;9.80;99.90
6054;DHT22;3055;50.886;14.814;2022-09-27T00:21:07;9.90;99.90
6054;DHT22;3055;50.886;14.814;2022-09-27T00:23:35;10.10;99.90
6054;DHT22;3055;50.886;14.814;2022-09-27T00:26:03;10.20;99.90
6054;DHT22;3055;50.886;14.814;2022-09-27T00:28:30;10.30;99.90
6054;DHT22;3055;50.886;14.814;2022-09-27T00:30:58;10.40;99.90
6054;DHT22;3055;50.886;14.814;2022-09-27T00:33:25;10.50;99.90
6054;DHT22;3055;50.886;14.814;2022-09-27T00:35:54;10.60;99.90
6054;DHT22;3055;50.886;14.814;2022-09-27T00:38:21;10.70;99.90
6054;DHT22;3055;50.886;14.814;2022-09-27T00:40:48;10.80;99.90
6054;DHT22;3055;50.886;14.814;2022-09-27T00:43:17;10.80;99.90
6054;DHT22;3055;50.886;14.814;2022-09-27T00:45:47;10.90;99.90
6054;DHT22;3055;50.886;14.814;2022-09-27T00:48:18;10.90;99.90
6054;DHT22;3055;50.886;14.814;2022-09-27T00:50:49;10.90;99.90
6054;DHT22;3055;50.886;14.814;2022-09-27T00:53:22;10.90;99.90
6054;DHT22;3055;50.886;14.814;2022-09-27T00:55:53;10.90;99.90
6054;DHT22;3055;50.886;14.814;2022-09-27T00:58:27;11.00;99.90
6054;DHT22;3055;50.886;14.814;2022-09-27T01:00:57;11.00;99.90
6054;DHT22;3055;50.886;14.814;2022-09-27T01:03:33;10.90;99.90
6054;DHT22;3055;50.886;14.814;2022-09-27T01:06:02;10.90;99.90
6054;DHT22;3055;50.886;14.814;2022-09-27T01:08:33;10.80;99.90
6054;DHT22;3055;50.886;14.814;2022-09-27T01:11:15;10.70;99.90
6054;DHT22;3055;50.886;14.814;2022-09-27T01:13:54;10.70;99.90
6054;DHT22;3055;50.886;14.814;2022-09-27T01:16:31;10.70;99.90
6054;DHT22;3055;50.886;14.814;2022-09-27T01:19:08;10.60;99.90
6054;DHT22;3055;50.886;14.814;2022-09-27T01:21:42;10.60;99.90
6054;DHT22;3055;50.886;14.814;2022-09-27T01:24:50;10.70;99.90
6054;DHT22;3055;50.886;14.814;2022-09-27T01:30:20;10.80;99.90
6054;DHT22;3055;50.886;14.814;2022-09-27T01:32:53;10.80;99.90
6054;DHT22;3055;50.886;14.814;2022-09-27T01:35:27;10.90;99.90
6054;DHT22;3055;50.886;14.814;2022-09-27T01:38:10;10.90;99.90
6054;DHT22;3055;50.886;14.814;2022-09-27T01:40:43;10.80;99.90
6054;DHT22;3055;50.886;14.814;2022-09-27T01:43:15;10.90;99.90
6054;DHT22;3055;50.886;14.814;2022-09-27T01:45:48;11.00;99.90
6054;DHT22;3055;50.886;14.814;2022-09-27T01:48:20;10.90;99.90
6054;DHT22;3055;50.886;14.814;2022-09-27T01:50:51;10.90;99.90
6054;DHT22;3055;50.886;14.814;2022-09-27T01:53:24;10.90;99.90
6054;DHT22;3055;50.886;14.814;2022-09-27T01:55:54;10.70;99.90
6054;DHT22;3055;50.886;14.814;2022-09-27T01:58:26;10.70;99.90
6054;DHT22;3055;50.886;14.814;2022-09-27T02:00:56;10.60;99.90
6054;DHT22;3055;50.886;14.814;2022-09-27T02:03:26;10.70;99.90
6054;DHT22;3055;50.886;14.814;2022-09-27T02:05:57;10.70;99.90
6054;DHT22;3055;50.886;14.814;2022-09-27T02:08:30;10.70;99.90
6054;DHT22;3055;50.886;14.814;2022-09-27T02:11:01;10.60;99.90
6054;DHT22;3055;50.886;14.814;2022-09-27T02:13:33;10.60;99.90
6054;DHT22;3055;50.886;14.814;2022-09-27T02:16:09;10.60;99.90
6054;DHT22;3055;50.886;14.814;2022-09-27T02:18:49;10.60;99.90
6054;DHT22;3055;50.886;14.814;2022-09-27T02:21:20;10.70;99.90
6054;DHT22;3055;50.886;14.814;2022-09-27T02:23:52;10.80;99.90
6054;DHT22;3055;50.886;14.814;2022-09-27T02:26:24;10.90;99.90
6054;DHT22;3055;50.886;14.814;2022-09-27T02:28:57;10.90;99.90
6054;DHT22;3055;50.886;14.814;2022-09-27T02:31:27;10.90;99.90
6054;DHT22;3055;50.886;14.814;2022-09-27T02:33:59;10.80;99.90
6054;DHT22;3055;50.886;14.814;2022-09-27T02:36:27;10.80;99.90
6054;DHT22;3055;50.886;14.814;2022-09-27T02:38:54;10.70;99.90
6054;DHT22;3055;50.886;14.814;2022-09-27T02:41:22;10.70;99.90
6054;DHT22;3055;50.886;14.814;2022-09-27T02:43:51;10.80;99.90
6054;DHT22;3055;50.886;14.814;2022-09-27T02:46:32;10.80;99.90
6054;DHT22;3055;50.886;14.814;2022-09-27T02:49:08;10.70;99.90
6054;DHT22;3055;50.886;14.814;2022-09-27T02:51:49;10.70;99.90
6054;DHT22;3055;50.886;14.814;2022-09-27T02:54:29;10.60;99.90
6054;DHT22;3055;50.886;14.814;2022-09-27T02:57:06;10.60;99.90
6054;DHT22;3055;50.886;14.814;2022-09-27T02:59:51;10.70;99.90
6054;DHT22;3055;50.886;14.814;2022-09-27T03:02:29;10.70;99.90
6054;DHT22;3055;50.886;14.814;2022-09-27T03:05:00;10.70;99.90
6054;DHT22;3055;50.886;14.814;2022-09-27T03:07:28;10.80;99.90
6054;DHT22;3055;50.886;14.814;2022-09-27T03:09:56;10.70;99.90
6054;DHT22;3055;50.886;14.814;2022-09-27T03:12:23;10.60;99.90
6054;DHT22;3055;50.886;14.814;2022-09-27T03:14:52;10.60;99.90
6054;DHT22;3055;50.886;14.814;2022-09-27T03:17:19;10.60;99.90
6054;DHT22;3055;50.886;14.814;2022-09-27T03:19:47;10.50;99.90
6054;DHT22;3055;50.886;14.814;2022-09-27T03:22:14;10.50;99.90
6054;DHT22;3055;50.886;14.814;2022-09-27T03:24:41;10.50;99.90
6054;DHT22;3055;50.886;14.814;2022-09-27T03:27:10;10.50;99.90
6054;DHT22;3055;50.886;14.814;2022-09-27T03:29:37;10.60;99.90
6054;DHT22;3055;50.886;14.814;2022-09-27T03:32:04;10.60;99.90
6054;DHT22;3055;50.886;14.814;2022-09-27T03:34:31;10.50;99.90
6054;DHT22;3055;50.886;14.814;2022-09-27T03:36:59;10.50;99.90
6054;DHT22;3055;50.886;14.814;2022-09-27T03:39:26;10.50;99.90
6054;DHT22;3055;50.886;14.814;2022-09-27T03:41:53;10.60;99.90
6054;DHT22;3055;50.886;14.814;2022-09-27T03:44:21;10.60;99.90
6054;DHT22;3055;50.886;14.814;2022-09-27T03:46:48;10.50;99.90
6054;DHT22;3055;50.886;14.814;2022-09-27T03:49:15;10.50;99.90
6054;DHT22;3055;50.886;14.814;2022-09-27T03:51:44;10.50;99.90
6054;DHT22;3055;50.886;14.814;2022-09-27T03:54:12;10.50;99.90
6054;DHT22;3055;50.886;14.814;2022-09-27T03:56:39;10.50;99.90
6054;DHT22;3055;50.886;14.814;2022-09-27T03:59:06;10.60;99.90
6054;DHT22;3055;50.886;14.814;2022-09-27T04:01:33;10.60;99.90
6054;DHT22;3055;50.886;14.814;2022-09-27T04:04:02;10.70;99.90
6054;DHT22;3055;50.886;14.814;2022-09-27T04:06:29;10.70;99.90
6054;DHT22;3055;50.886;14.814;2022-09-27T04:08:56;10.70;99.90
6054;DHT22;3055;50.886;14.814;2022-09-27T04:11:24;10.60;99.90
6054;DHT22;3055;50.886;14.814;2022-09-27T04:13:51;10.60;99.90
6054;DHT22;3055;50.886;14.814;2022-09-27T04:16:18;10.80;99.20
6054;DHT22;3055;50.886;14.814;2022-09-27T04:18:45;10.80;94.50
6054;DHT22;3055;50.886;14.814;2022-09-27T04:21:12;10.90;74.90
6054;DHT22;3055;50.886;14.814;2022-09-27T04:23:39;11.00;68.50
6054;DHT22;3055;50.886;14.814;2022-09-27T04:26:06;11.00;51.10
6054;DHT22;3055;50.886;14.814;2022-09-27T04:28:35;11.10;60.20
6054;DHT22;3055;50.886;14.814;2022-09-27T04:31:02;11.20;28.20
6054;DHT22;3055;50.886;14.814;2022-09-27T04:33:29;11.30;22.80
6054;DHT22;3055;50.886;14.814;2022-09-27T04:35:56;11.20;32.10
6054;DHT22;3055;50.886;14.814;2022-09-27T04:38:40;11.20;31.70
6054;DHT22;3055;50.886;14.814;2022-09-27T04:41:07;11.20;23.40
6054;DHT22;3055;50.886;14.814;2022-09-27T04:43:36;11.30;28.10
6054;DHT22;3055;50.886;14.814;2022-09-27T04:46:03;11.30;18.90
6054;DHT22;3055;50.886;14.814;2022-09-27T04:48:30;11.40;14.00
6054;DHT22;3055;50.886;14.814;2022-09-27T04:50:58;11.30;11.90
6054;DHT22;3055;50.886;14.814;2022-09-27T04:53:25;11.40;5.30
6054;DHT22;3055;50.886;14.814;2022-09-27T04:55:52;11.40;5.20
6054;DHT22;3055;50.886;14.814;2022-09-27T04:58:20;11.50;1.00
6054;DHT22;3055;50.886;14.814;2022-09-27T05:00:48;11.50;2.70
6054;DHT22;3055;50.886;14.814;2022-09-27T05:03:17;11.50;11.20
6054;DHT22;3055;50.886;14.814;2022-09-27T05:05:44;11.50;2.00
6054;DHT22;3055;50.886;14.814;2022-09-27T05:08:11;11.50;10.70
6054;DHT22;3055;50.886;14.814;2022-09-27T05:10:38;11.50;15.10
6054;DHT22;3055;50.886;14.814;2022-09-27T05:13:05;11.50;12.50
6054;DHT22;3055;50.886;14.814;2022-09-27T05:15:32;11.50;11.50
6054;DHT22;3055;50.886;14.814;2022-09-27T05:18:02;11.60;21.40
6054;DHT22;3055;50.886;14.814;2022-09-27T05:20:29;11.50;29.10
6054;DHT22;3055;50.886;14.814;2022-09-27T05:22:56;11.50;31.70
6054;DHT22;3055;50.886;14.814;2022-09-27T05:25:23;11.50;11.70
6054;DHT22;3055;50.886;14.814;2022-09-27T05:27:50;11.50;30.00
6054;DHT22;3055;50.886;14.814;2022-09-27T05:30:17;11.50;55.30
6054;DHT22;3055;50.886;14.814;2022-09-27T05:32:45;11.50;79.10
6054;DHT22;3055;50.886;14.814;2022-09-27T05:35:16;11.40;76.80
6054;DHT22;3055;50.886;14.814;2022-09-27T05:37:50;11.50;85.60
6054;DHT22;3055;50.886;14.814;2022-09-27T05:40:17;11.40;74.20
6054;DHT22;3055;50.886;14.814;2022-09-27T05:42:47;11.40;82.70
6054;DHT22;3055;50.886;14.814;2022-09-27T05:45:15;11.50;70.40
6054;DHT22;3055;50.886;14.814;2022-09-27T05:47:42;11.50;87.60
6054;DHT22;3055;50.886;14.814;2022-09-27T05:50:09;11.50;90.40
6054;DHT22;3055;50.886;14.814;2022-09-27T05:52:37;11.50;89.50
6054;DHT22;3055;50.886;14.814;2022-09-27T05:55:05;11.50;91.70
6054;DHT22;3055;50.886;14.814;2022-09-27T05:57:32;11.50;99.90
6054;DHT22;3055;50.886;14.814;2022-09-27T05:59:59;11.60;99.90
6054;DHT22;3055;50.886;14.814;2022-09-27T06:02:26;11.50;99.90
6054;DHT22;3055;50.886;14.814;2022-09-27T06:04:54;11.50;99.90
6054;DHT22;3055;50.886;14.814;2022-09-27T06:07:21;11.50;99.90
6054;DHT22;3055;50.886;14.814;2022-09-27T06:09:49;11.60;99.90
6054;DHT22;3055;50.886;14.814;2022-09-27T06:12:16;11.60;99.90
6054;DHT22;3055;50.886;14.814;2022-09-27T06:14:45;11.60;99.90
6054;DHT22;3055;50.886;14.814;2022-09-27T06:17:12;11.60;99.90
6054;DHT22;3055;50.886;14.814;2022-09-27T06:19:39;11.50;99.90
6054;DHT22;3055;50.886;14.814;2022-09-27T06:22:06;11.60;99.90
6054;DHT22;3055;50.886;14.814;2022-09-27T06:24:33;11.50;99.90
6054;DHT22;3055;50.886;14.814;2022-09-27T06:27:02;11.50;99.90
6054;DHT22;3055;50.886;14.814;2022-09-27T06:29:29;11.50;99.90
6054;DHT22;3055;50.886;14.814;2022-09-27T06:32:00;11.60;99.90
6054;DHT22;3055;50.886;14.814;2022-09-27T06:34:27;11.60;99.90
6054;DHT22;3055;50.886;14.814;2022-09-27T06:36:54;11.70;99.90
6054;DHT22;3055;50.886;14.814;2022-09-27T06:39:22;11.70;99.90
6054;DHT22;3055;50.886;14.814;2022-09-27T06:41:52;11.60;99.90
6054;DHT22;3055;50.886;14.814;2022-09-27T06:44:24;11.60;99.90
6054;DHT22;3055;50.886;14.814;2022-09-27T06:46:51;11.80;99.90
6054;DHT22;3055;50.886;14.814;2022-09-27T06:49:19;11.80;99.90
6054;DHT22;3055;50.886;14.814;2022-09-27T06:51:47;11.80;99.90
6054;DHT22;3055;50.886;14.814;2022-09-27T06:54:15;11.80;99.90
6054;DHT22;3055;50.886;14.814;2022-09-27T06:56:42;11.70;99.90
6054;DHT22;3055;50.886;14.814;2022-09-27T06:59:09;11.60;99.90
6054;DHT22;3055;50.886;14.814;2022-09-27T07:01:55;11.60;99.90
6054;DHT22;3055;50.886;14.814;2022-09-27T07:04:22;11.60;99.90
6054;DHT22;3055;50.886;14.814;2022-09-27T07:06:49;11.50;99.90
6054;DHT22;3055;50.886;14.814;2022-09-27T07:09:18;11.50;99.90
6054;DHT22;3055;50.886;14.814;2022-09-27T07:11:45;11.60;99.90
6054;DHT22;3055;50.886;14.814;2022-09-27T07:14:12;11.60;99.90
6054;DHT22;3055;50.886;14.814;2022-09-27T07:16:39;11.60;99.90
6054;DHT22;3055;50.886;14.814;2022-09-27T07:19:07;11.70;99.90
6054;DHT22;3055;50.886;14.814;2022-09-27T07:21:36;11.80;99.90
6054;DHT22;3055;50.886;14.814;2022-09-27T07:24:03;11.90;99.90
6054;DHT22;3055;50.886;14.814;2022-09-27T07:26:30;12.00;99.90
6054;DHT22;3055;50.886;14.814;2022-09-27T07:28:57;12.10;99.90
6054;DHT22;3055;50.886;14.814;2022-09-27T07:31:25;12.20;99.90
6054;DHT22;3055;50.886;14.814;2022-09-27T07:33:53;12.30;99.90
6054;DHT22;3055;50.886;14.814;2022-09-27T07:36:21;12.40;98.30
6054;DHT22;3055;50.886;14.814;2022-09-27T07:38:48;12.50;99.00
6054;DHT22;3055;50.886;14.814;2022-09-27T07:41:15;12.50;57.70
6054;DHT22;3055;50.886;14.814;2022-09-27T07:43:42;12.50;66.10
6054;DHT22;3055;50.886;14.814;2022-09-27T07:46:10;12.60;97.90
6054;DHT22;3055;50.886;14.814;2022-09-27T07:48:38;12.70;91.20
6054;DHT22;3055;50.886;14.814;2022-09-27T07:51:05;12.70;30.50
6054;DHT22;3055;50.886;14.814;2022-09-27T07:53:36;12.80;55.10
6054;DHT22;3055;50.886;14.814;2022-09-27T07:56:05;13.00;35.40
6054;DHT22;3055;50.886;14.814;2022-09-27T07:58:32;13.30;1.00
6054;DHT22;3055;50.886;14.814;2022-09-27T08:00:59;13.70;3.60
6054;DHT22;3055;50.886;14.814;2022-09-27T08:03:27;14.10;1.00
6054;DHT22;3055;50.886;14.814;2022-09-27T08:05:54;14.60;1.00
6054;DHT22;3055;50.886;14.814;2022-09-27T08:08:21;14.70;1.00
6054;DHT22;3055;50.886;14.814;2022-09-27T08:10:50;14.50;1.00
6054;DHT22;3055;50.886;14.814;2022-09-27T08:13:17;14.10;1.00
6054;DHT22;3055;50.886;14.814;2022-09-27T08:15:44;13.90;1.00
6054;DHT22;3055;50.886;14.814;2022-09-27T08:18:11;13.70;1.00
6054;DHT22;3055;50.886;14.814;2022-09-27T08:20:38;13.50;1.00
6054;DHT22;3055;50.886;14.814;2022-09-27T08:23:05;13.40;1.00
6054;DHT22;3055;50.886;14.814;2022-09-27T08:25:32;13.30;1.00
6054;DHT22;3055;50.886;14.814;2022-09-27T08:28:02;13.30;23.60
6054;DHT22;3055;50.886;14.814;2022-09-27T08:30:30;13.20;1.00
6054;DHT22;3055;50.886;14.814;2022-09-27T08:32:58;13.20;1.00
6054;DHT22;3055;50.886;14.814;2022-09-27T08:35:30;13.20;1.00
6054;DHT22;3055;50.886;14.814;2022-09-27T08:38:00;13.20;1.00
6054;DHT22;3055;50.886;14.814;2022-09-27T08:40:34;13.30;1.00
6054;DHT22;3055;50.886;14.814;2022-09-27T08:43:09;13.30;1.00
6054;DHT22;3055;50.886;14.814;2022-09-27T08:45:40;13.40;1.00
6054;DHT22;3055;50.886;14.814;2022-09-27T08:48:09;13.50;1.00
6054;DHT22;3055;50.886;14.814;2022-09-27T08:50:40;13.60;1.00
6054;DHT22;3055;50.886;14.814;2022-09-27T08:53:17;13.70;1.00
6054;DHT22;3055;50.886;14.814;2022-09-27T08:55:48;13.80;1.00
6054;DHT22;3055;50.886;14.814;2022-09-27T08:58:22;13.90;1.00
6054;DHT22;3055;50.886;14.814;2022-09-27T09:00:53;14.00;1.00
6054;DHT22;3055;50.886;14.814;2022-09-27T09:03:24;14.00;1.00
6054;DHT22;3055;50.886;14.814;2022-09-27T09:06:04;14.20;1.00
6054;DHT22;3055;50.886;14.814;2022-09-27T09:08:41;14.50;1.00
6054;DHT22;3055;50.886;14.814;2022-09-27T09:11:19;14.80;1.00
6054;DHT22;3055;50.886;14.814;2022-09-27T09:14:20;14.90;99.90
6054;DHT22;3055;50.886;14.814;2022-09-27T09:16:58;14.90;99.90
6054;DHT22;3055;50.886;14.814;2022-09-27T09:19:50;14.90;1.00
6054;DHT22;3055;50.886;14.814;2022-09-27T09:22:32;14.80;99.90
6054;DHT22;3055;50.886;14.814;2022-09-27T09:25:17;14.70;1.00
6054;DHT22;3055;50.886;14.814;2022-09-27T09:27:53;14.70;73.60
6054;DHT22;3055;50.886;14.814;2022-09-27T09:30:31;14.60;98.30
6054;DHT22;3055;50.886;14.814;2022-09-27T09:33:13;14.50;99.90
6054;DHT22;3055;50.886;14.814;2022-09-27T09:35:46;14.50;99.90
6054;DHT22;3055;50.886;14.814;2022-09-27T09:38:19;14.60;99.90
6054;DHT22;3055;50.886;14.814;2022-09-27T09:40:50;14.80;99.90
6054;DHT22;3055;50.886;14.814;2022-09-27T09:43:20;14.90;99.90
6054;DHT22;3055;50.886;14.814;2022-09-27T09:45:54;14.90;99.90
6054;DHT22;3055;50.886;14.814;2022-09-27T09:48:29;14.90;99.90
6054;DHT22;3055;50.886;14.814;2022-09-27T09:50:59;14.90;1.00
6054;DHT22;3055;50.886;14.814;2022-09-27T09:53:35;14.80;99.90
6054;DHT22;3055;50.886;14.814;2022-09-27T09:56:09;14.60;99.90
6054;DHT22;3055;50.886;14.814;2022-09-27T09:58:42;14.50;99.90
6054;DHT22;3055;50.886;14.814;2022-09-27T10:01:17;14.40;1.00
6054;DHT22;3055;50.886;14.814;2022-09-27T10:03:45;14.30;1.00
6054;DHT22;3055;50.886;14.814;2022-09-27T10:06:14;14.20;1.00
6054;DHT22;3055;50.886;14.814;2022-09-27T10:08:41;14.10;1.00
6054;DHT22;3055;50.886;14.814;2022-09-27T10:11:17;14.10;1.00
6054;DHT22;3055;50.886;14.814;2022-09-27T10:13:46;14.20;1.00
6054;DHT22;3055;50.886;14.814;2022-09-27T10:16:16;14.40;1.00
6054;DHT22;3055;50.886;14.814;2022-09-27T10:18:45;14.50;99.90
6054;DHT22;3055;50.886;14.814;2022-09-27T10:21:17;14.70;99.90
6054;DHT22;3055;50.886;14.814;2022-09-27T10:24:06;14.90;1.00
6054;DHT22;3055;50.886;14.814;2022-09-27T10:26:35;15.10;99.90
6054;DHT22;3055;50.886;14.814;2022-09-27T10:29:22;15.40;99.90
6054;DHT22;3055;50.886;14.814;2022-09-27T10:31:51;15.60;99.90
6054;DHT22;3055;50.886;14.814;2022-09-27T10:34:26;15.70;1.00
6054;DHT22;3055;50.886;14.814;2022-09-27T10:37:15;16.00;99.90
6054;DHT22;3055;50.886;14.814;2022-09-27T10:39:44;16.00;58.40
6054;DHT22;3055;50.886;14.814;2022-09-27T10:42:29;15.80;1.00
6054;DHT22;3055;50.886;14.814;2022-09-27T10:44:58;15.80;99.90
6054;DHT22;3055;50.886;14.814;2022-09-27T10:47:46;15.60;99.90
6054;DHT22;3055;50.886;14.814;2022-09-27T10:50:18;15.40;1.00
6054;DHT22;3055;50.886;14.814;2022-09-27T10:52:47;15.20;1.00
6054;DHT22;3055;50.886;14.814;2022-09-27T10:55:20;15.30;99.90
6054;DHT22;3055;50.886;14.814;2022-09-27T10:57:49;15.30;99.90
6054;DHT22;3055;50.886;14.814;2022-09-27T11:00:21;15.40;1.00
6054;DHT22;3055;50.886;14.814;2022-09-27T11:02:53;15.40;99.90
6054;DHT22;3055;50.886;14.814;2022-09-27T11:05:35;15.40;1.00
6054;DHT22;3055;50.886;14.814;2022-09-27T11:08:21;15.20;99.90
6054;DHT22;3055;50.886;14.814;2022-09-27T11:11:11;15.10;99.90
6054;DHT22;3055;50.886;14.814;2022-09-27T11:13:58;15.00;1.00
6054;DHT22;3055;50.886;14.814;2022-09-27T11:16:41;14.90;99.90
6054;DHT22;3055;50.886;14.814;2022-09-27T11:22:13;14.80;1.00
6054;DHT22;3055;50.886;14.814;2022-09-27T11:24:52;14.80;1.00
6054;DHT22;3055;50.886;14.814;2022-09-27T11:27:29;14.80;1.00
6054;DHT22;3055;50.886;14.814;2022-09-27T11:30:06;14.70;53.60
6054;DHT22;3055;50.886;14.814;2022-09-27T11:32:50;14.70;99.90
6054;DHT22;3055;50.886;14.814;2022-09-27T11:35:36;14.60;99.90
6054;DHT22;3055;50.886;14.814;2022-09-27T11:38:16;14.40;1.00
6054;DHT22;3055;50.886;14.814;2022-09-27T11:40:58;14.30;1.00
6054;DHT22;3055;50.886;14.814;2022-09-27T11:43:44;14.40;1.00
6054;DHT22;3055;50.886;14.814;2022-09-27T11:46:22;14.60;1.00
6054;DHT22;3055;50.886;14.814;2022-09-27T11:49:11;14.90;1.00
6054;DHT22;3055;50.886;14.814;2022-09-27T11:51:57;15.10;1.00
6054;DHT22;3055;50.886;14.814;2022-09-27T11:54:43;15.50;99.90
6054;DHT22;3055;50.886;14.814;2022-09-27T11:57:17;15.70;99.90
6054;DHT22;3055;50.886;14.814;2022-09-27T12:06:04;15.30;1.00
6054;DHT22;3055;50.886;14.814;2022-09-27T12:08:42;15.00;1.00
6054;DHT22;3055;50.886;14.814;2022-09-27T12:11:18;14.90;1.00
6054;DHT22;3055;50.886;14.814;2022-09-27T12:13:49;14.70;1.00
6054;DHT22;3055;50.886;14.814;2022-09-27T12:16:18;14.70;1.00
6054;DHT22;3055;50.886;14.814;2022-09-27T12:18:47;14.70;1.00
6054;DHT22;3055;50.886;14.814;2022-09-27T12:21:16;14.70;1.00
6054;DHT22;3055;50.886;14.814;2022-09-27T12:23:48;14.60;1.00
6054;DHT22;3055;50.886;14.814;2022-09-27T12:26:19;14.30;1.00
6054;DHT22;3055;50.886;14.814;2022-09-27T12:28:51;14.10;1.00
6054;DHT22;3055;50.886;14.814;2022-09-27T12:31:22;13.80;99.90
6054;DHT22;3055;50.886;14.814;2022-09-27T12:33:58;13.40;1.00
6054;DHT22;3055;50.886;14.814;2022-09-27T12:36:30;13.00;1.00
6054;DHT22;3055;50.886;14.814;2022-09-27T12:39:05;12.80;1.00
6054;DHT22;3055;50.886;14.814;2022-09-27T12:41:39;12.70;1.00
6054;DHT22;3055;50.886;14.814;2022-09-27T12:44:09;12.50;1.00
6054;DHT22;3055;50.886;14.814;2022-09-27T12:46:43;12.40;1.00
6054;DHT22;3055;50.886;14.814;2022-09-27T12:49:14;12.20;1.00
6054;DHT22;3055;50.886;14.814;2022-09-27T12:51:47;12.00;1.00
6054;DHT22;3055;50.886;14.814;2022-09-27T12:54:36;11.90;1.00
6054;DHT22;3055;50.886;14.814;2022-09-27T12:57:16;11.90;1.00
6054;DHT22;3055;50.886;14.814;2022-09-27T12:59:55;11.90;20.00
6054;DHT22;3055;50.886;14.814;2022-09-27T13:05:37;11.90;19.40
6054;DHT22;3055;50.886;14.814;2022-09-27T13:08:25;12.10;34.70
6054;DHT22;3055;50.886;14.814;2022-09-27T13:11:06;12.10;23.80
6054;DHT22;3055;50.886;14.814;2022-09-27T13:13:36;12.10;32.60
6054;DHT22;3055;50.886;14.814;2022-09-27T13:16:05;11.90;1.00
6054;DHT22;3055;50.886;14.814;2022-09-27T13:18:54;11.80;3.40
6054;DHT22;3055;50.886;14.814;2022-09-27T13:21:56;11.80;21.80
6054;DHT22;3055;50.886;14.814;2022-09-27T13:24:45;11.80;22.40
6054;DHT22;3055;50.886;14.814;2022-09-27T13:27:39;11.80;35.30
6054;DHT22;3055;50.886;14.814;2022-09-27T13:33:43;12.00;41.30
6054;DHT22;3055;50.886;14.814;2022-09-27T13:36:24;12.40;29.60
6054;DHT22;3055;50.886;14.814;2022-09-27T13:39:03;13.20;23.60
6054;DHT22;3055;50.886;14.814;2022-09-27T13:41:38;14.00;1.00
6054;DHT22;3055;50.886;14.814;2022-09-27T13:44:14;15.00;99.90
6054;DHT22;3055;50.886;14.814;2022-09-27T13:46:48;15.90;99.90
6054;DHT22;3055;50.886;14.814;2022-09-27T13:49:19;16.40;1.00
6054;DHT22;3055;50.886;14.814;2022-09-27T13:51:50;16.50;99.90
6054;DHT22;3055;50.886;14.814;2022-09-27T13:54:38;16.40;1.00
6054;DHT22;3055;50.886;14.814;2022-09-27T14:00:23;15.50;99.90
6054;DHT22;3055;50.886;14.814;2022-09-27T14:02:59;15.30;99.90
6054;DHT22;3055;50.886;14.814;2022-09-27T14:05:31;15.00;99.90
6054;DHT22;3055;50.886;14.814;2022-09-27T14:08:00;14.80;99.90
6054;DHT22;3055;50.886;14.814;2022-09-27T14:10:29;14.60;99.90
6054;DHT22;3055;50.886;14.814;2022-09-27T14:13:03;14.50;1.00
6054;DHT22;3055;50.886;14.814;2022-09-27T14:15:32;14.40;69.40
6054;DHT22;3055;50.886;14.814;2022-09-27T14:18:02;14.30;1.00
6054;DHT22;3055;50.886;14.814;2022-09-27T14:20:48;14.20;1.00
6054;DHT22;3055;50.886;14.814;2022-09-27T14:23:19;14.00;1.00
6054;DHT22;3055;50.886;14.814;2022-09-27T14:25:52;13.80;1.00
6054;DHT22;3055;50.886;14.814;2022-09-27T14:28:30;13.70;99.90
6054;DHT22;3055;50.886;14.814;2022-09-27T14:31:11;13.60;99.90
6054;DHT22;3055;50.886;14.814;2022-09-27T14:33:40;13.60;51.60
6054;DHT22;3055;50.886;14.814;2022-09-27T14:36:19;13.70;99.90
6054;DHT22;3055;50.886;14.814;2022-09-27T14:39:13;13.90;99.90
6054;DHT22;3055;50.886;14.814;2022-09-27T14:41:40;14.20;99.90
6054;DHT22;3055;50.886;14.814;2022-09-27T14:44:14;14.40;1.00
6054;DHT22;3055;50.886;14.814;2022-09-27T14:46:44;14.60;1.00
6054;DHT22;3055;50.886;14.814;2022-09-27T14:49:18;14.70;1.00
6054;DHT22;3055;50.886;14.814;2022-09-27T14:51:51;15.00;1.00
6054;DHT22;3055;50.886;14.814;2022-09-27T14:54:21;15.10;99.90
6054;DHT22;3055;50.886;14.814;2022-09-27T14:56:50;15.00;99.90
6054;DHT22;3055;50.886;14.814;2022-09-27T14:59:29;15.00;99.90
6054;DHT22;3055;50.886;14.814;2022-09-27T15:02:03;14.90;99.90
6054;DHT22;3055;50.886;14.814;2022-09-27T15:04:43;14.80;99.90
6054;DHT22;3055;50.886;14.814;2022-09-27T15:07:11;14.60;99.90
6054;DHT22;3055;50.886;14.814;2022-09-27T15:09:40;14.30;99.90
6054;DHT22;3055;50.886;14.814;2022-09-27T15:12:09;14.00;99.90
6054;DHT22;3055;50.886;14.814;2022-09-27T15:14:38;13.80;1.00
6054;DHT22;3055;50.886;14.814;2022-09-27T15:17:15;13.80;1.00
6054;DHT22;3055;50.886;14.814;2022-09-27T15:19:59;13.90;99.90
6054;DHT22;3055;50.886;14.814;2022-09-27T15:22:35;14.90;99.90
6054;DHT22;3055;50.886;14.814;2022-09-27T15:25:15;16.20;99.90
6054;DHT22;3055;50.886;14.814;2022-09-27T15:27:50;16.40;99.90
6054;DHT22;3055;50.886;14.814;2022-09-27T15:30:23;15.80;99.90
6054;DHT22;3055;50.886;14.814;2022-09-27T15:32:53;15.30;99.90
6054;DHT22;3055;50.886;14.814;2022-09-27T15:35:26;14.80;99.90
6054;DHT22;3055;50.886;14.814;2022-09-27T15:38:20;14.20;99.90
6054;DHT22;3055;50.886;14.814;2022-09-27T15:41:11;14.00;99.90
6054;DHT22;3055;50.886;14.814;2022-09-27T15:43:41;13.70;99.90
6054;DHT22;3055;50.886;14.814;2022-09-27T15:49:26;13.40;99.90
6054;DHT22;3055;50.886;14.814;2022-09-27T15:51:56;13.20;99.90
6054;DHT22;3055;50.886;14.814;2022-09-27T15:54:25;13.10;99.90
6054;DHT22;3055;50.886;14.814;2022-09-27T15:56:55;12.90;99.90
6054;DHT22;3055;50.886;14.814;2022-09-27T15:59:25;12.70;99.90
6054;DHT22;3055;50.886;14.814;2022-09-27T16:01:55;12.50;1.00
6054;DHT22;3055;50.886;14.814;2022-09-27T16:04:24;12.40;1.00
6054;DHT22;3055;50.886;14.814;2022-09-27T16:06:51;12.30;1.00
6054;DHT22;3055;50.886;14.814;2022-09-27T16:09:19;12.20;1.00
6054;DHT22;3055;50.886;14.814;2022-09-27T16:11:47;12.10;99.90
6054;DHT22;3055;50.886;14.814;2022-09-27T16:14:15;11.90;99.90
6054;DHT22;3055;50.886;14.814;2022-09-27T16:16:45;11.80;99.90
6054;DHT22;3055;50.886;14.814;2022-09-27T16:19:13;11.70;92.80
6054;DHT22;3055;50.886;14.814;2022-09-27T16:21:42;11.70;99.90
6054;DHT22;3055;50.886;14.814;2022-09-27T16:24:10;11.50;99.90
6054;DHT22;3055;50.886;14.814;2022-09-27T16:26:37;11.40;1.00
6054;DHT22;3055;50.886;14.814;2022-09-27T16:29:07;11.40;1.00
6054;DHT22;3055;50.886;14.814;2022-09-27T16:31:34;11.50;99.90
6054;DHT22;3055;50.886;14.814;2022-09-27T16:34:01;11.50;99.90
6054;DHT22;3055;50.886;14.814;2022-09-27T16:36:28;11.50;99.90
6054;DHT22;3055;50.886;14.814;2022-09-27T16:38:56;11.60;99.90
6054;DHT22;3055;50.886;14.814;2022-09-27T16:41:23;11.60;99.90
6054;DHT22;3055;50.886;14.814;2022-09-27T16:43:50;11.60;35.90
6054;DHT22;3055;50.886;14.814;2022-09-27T16:46:17;11.50;1.00